createdAt,value
2023-04-01T00:03:12.663Z,16.74
2023-04-01T00:08:39.978Z,16.71
2023-04-01T00:19:13.175Z,16.68
2023-04-01T00:24:28.379Z,16.66
2023-04-01T00:29:48.667Z,16.64
2023-04-01T00:34:56.586Z,16.61
2023-04-01T00:40:03.104Z,16.56
2023-04-01T00:45:48.819Z,16.52
2023-04-01T00:50:58.402Z,16.50
2023-04-01T00:56:20.776Z,16.51
2023-04-01T01:06:30.826Z,16.47
2023-04-01T01:12:12.917Z,16.44
2023-04-01T01:17:54.923Z,16.41
2023-04-01T01:23:15.806Z,16.37
2023-04-01T01:29:06.892Z,16.32
2023-04-01T01:34:50.165Z,16.27
2023-04-01T01:40:07.682Z,16.24
2023-04-01T01:45:40.461Z,16.21
2023-04-01T01:50:58.898Z,16.17
2023-04-01T01:56:10.712Z,16.14
2023-04-01T02:01:31.398Z,16.13
2023-04-01T02:06:49.496Z,16.10
2023-04-01T02:12:03.807Z,16.10
2023-04-01T02:17:16.844Z,16.08
2023-04-01T02:22:25.039Z,16.06
2023-04-01T02:27:27.261Z,16.04
2023-04-01T02:32:32.539Z,16.02
2023-04-01T02:37:36.245Z,16.03
2023-04-01T02:42:39.945Z,16.08
2023-04-01T02:47:42.260Z,16.10
2023-04-01T02:52:44.814Z,16.09
2023-04-01T02:57:47.408Z,16.06
2023-04-01T03:02:49.877Z,16.02
2023-04-01T03:07:52.227Z,15.95
2023-04-01T03:12:54.667Z,15.90
2023-04-01T03:17:56.822Z,15.84
2023-04-01T03:23:09.722Z,15.82
2023-04-01T03:28:18.201Z,15.79
2023-04-01T03:33:45.344Z,15.76
2023-04-01T03:38:47.817Z,15.75
2023-04-01T03:43:56.952Z,15.74
2023-04-01T03:48:59.159Z,15.74
2023-04-01T03:54:01.887Z,15.74
2023-04-01T03:59:06.277Z,15.77
2023-04-01T04:04:09.486Z,15.79
2023-04-01T04:09:11.534Z,15.82
2023-04-01T04:14:19.747Z,15.85
2023-04-01T04:19:24.253Z,15.89
2023-04-01T04:24:26.432Z,15.93
2023-04-01T04:29:43.918Z,15.96
2023-04-01T04:34:45.997Z,15.99
2023-04-01T04:39:47.929Z,16.00
2023-04-01T04:44:50.686Z,15.99
2023-04-01T04:49:52.919Z,15.98
2023-04-01T04:54:55.215Z,16.02
2023-04-01T04:59:57.187Z,16.02
2023-04-01T05:05:18.189Z,16.02
2023-04-01T05:10:21.851Z,16.03
2023-04-01T05:15:24.291Z,16.02
2023-04-01T05:20:26.435Z,16.00
2023-04-01T05:25:29.230Z,15.97
2023-04-01T05:30:31.846Z,15.95
2023-04-01T05:35:43.118Z,15.95
2023-04-01T05:40:46.802Z,15.95
2023-04-01T05:45:49.784Z,15.90
2023-04-01T05:51:17.444Z,15.80
2023-04-01T05:56:19.543Z,15.70
2023-04-01T06:01:25.119Z,15.66
2023-04-01T06:06:30.022Z,15.59
2023-04-01T06:11:54.289Z,15.53
2023-04-01T06:17:41.227Z,15.53
2023-04-01T06:22:52.328Z,15.52
2023-04-01T06:28:08.883Z,15.47
2023-04-01T06:33:33.527Z,15.48
2023-04-01T06:39:12.584Z,15.44
2023-04-01T06:44:35.328Z,15.42
2023-04-01T06:50:20.435Z,15.36
2023-04-01T06:55:58.902Z,15.28
2023-04-01T07:01:56.035Z,15.25
2023-04-01T07:07:07.056Z,15.29
2023-04-01T07:12:32.045Z,15.31
2023-04-01T07:18:19.444Z,15.33
2023-04-01T07:23:42.799Z,15.36
2023-04-01T07:29:17.236Z,15.36
2023-04-01T07:34:42.229Z,15.38
2023-04-01T07:40:16.974Z,15.41
2023-04-01T07:45:37.841Z,15.43
2023-04-01T07:50:50.038Z,15.45
2023-04-01T07:56:12.942Z,15.48
2023-04-01T08:01:46.302Z,15.50
2023-04-01T08:07:09.710Z,15.53
2023-04-01T08:12:37.558Z,15.54
2023-04-01T08:18:07.433Z,15.52
2023-04-01T08:23:22.662Z,15.51
2023-04-01T08:28:39.927Z,15.53
2023-04-01T08:33:48.768Z,15.59
2023-04-01T08:38:56.990Z,15.64
2023-04-01T08:44:13.479Z,15.70
2023-04-01T08:49:34.295Z,15.75
2023-04-01T08:55:07.189Z,15.82
2023-04-01T09:00:39.441Z,15.88
2023-04-01T09:06:22.764Z,15.96
2023-04-01T09:11:31.992Z,16.03
2023-04-01T09:17:11.414Z,16.09
2023-04-01T09:22:34.987Z,16.15
2023-04-01T09:28:09.364Z,16.25
2023-04-01T09:33:32.909Z,16.33
2023-04-01T09:38:54.118Z,16.39
2023-04-01T09:44:15.231Z,16.47
2023-04-01T09:50:00.503Z,16.61
2023-04-01T09:55:50.984Z,16.70
2023-04-01T10:01:10.920Z,16.86
2023-04-01T10:06:54.278Z,17.07
2023-04-01T10:12:33.837Z,17.28
2023-04-01T10:18:06.133Z,17.54
2023-04-01T10:23:36.080Z,17.95
2023-04-01T10:28:50.804Z,18.45
2023-04-01T10:34:48.022Z,18.97
2023-04-01T10:40:09.315Z,19.41
2023-04-01T10:45:46.461Z,19.68
2023-04-01T10:51:10.480Z,19.89
2023-04-01T10:56:31.737Z,19.95
2023-04-01T11:02:03.867Z,19.97
2023-04-01T11:07:31.454Z,20.13
2023-04-01T11:13:07.284Z,20.09
2023-04-01T11:18:28.504Z,20.24
2023-04-01T11:23:58.309Z,20.11
2023-04-01T11:29:21.765Z,19.95
2023-04-01T11:34:44.232Z,19.94
2023-04-01T11:40:02.650Z,20.00
2023-04-01T11:45:37.454Z,19.94
2023-04-01T11:50:58.532Z,19.84
2023-04-01T11:56:18.866Z,19.66
2023-04-01T12:01:27.984Z,19.75
2023-04-01T12:07:02.528Z,19.76
2023-04-01T12:12:04.677Z,19.75
2023-04-01T12:17:31.482Z,19.84
2023-04-01T12:23:01.555Z,19.68
2023-04-01T12:28:19.383Z,19.53
2023-04-01T12:33:49.352Z,19.55
2023-04-01T12:39:14.868Z,19.64
2023-04-01T12:44:22.694Z,19.72
2023-04-01T12:49:57.605Z,19.62
2023-04-01T12:55:22.584Z,19.62
2023-04-01T13:00:56.334Z,19.69
2023-04-01T13:06:29.331Z,19.62
2023-04-01T13:12:09.716Z,19.70
2023-04-01T13:17:22.137Z,20.01
2023-04-01T13:22:39.096Z,20.07
2023-04-01T13:27:49.678Z,20.15
2023-04-01T13:33:29.547Z,20.31
2023-04-01T13:38:51.800Z,20.51
2023-04-01T13:44:36.836Z,20.68
2023-04-01T13:50:10.366Z,20.83
2023-04-01T13:55:40.528Z,21.06
2023-04-01T14:01:17.150Z,21.35
2023-04-01T14:06:38.909Z,21.70
2023-04-01T14:12:06.813Z,21.95
2023-04-01T14:17:18.038Z,22.21
2023-04-01T14:22:57.880Z,22.37
2023-04-01T14:28:19.912Z,22.30
2023-04-01T14:33:56.776Z,22.32
2023-04-01T14:39:47.015Z,22.36
2023-04-01T14:45:23.196Z,22.40
2023-04-01T14:50:29.559Z,22.50
2023-04-01T14:55:52.850Z,22.60
2023-04-01T15:01:02.855Z,22.65
2023-04-01T15:06:26.784Z,22.69
2023-04-01T15:11:36.821Z,22.71
2023-04-01T15:17:16.587Z,22.68
2023-04-01T15:22:40.113Z,22.66
2023-04-01T15:28:14.654Z,22.60
2023-04-01T15:33:36.078Z,22.32
2023-04-01T15:39:08.823Z,22.32
2023-04-01T15:44:39.630Z,22.33
2023-04-01T15:49:56.301Z,22.17
2023-04-01T15:55:02.047Z,22.13
2023-04-01T16:00:32.673Z,22.02
2023-04-01T16:05:56.595Z,21.99
2023-04-01T16:11:30.168Z,22.08
2023-04-01T16:17:18.687Z,22.21
2023-04-01T16:22:46.319Z,22.25
2023-04-01T16:28:10.008Z,22.21
2023-04-01T16:33:51.481Z,22.11
2023-04-01T16:39:20.314Z,22.02
2023-04-01T16:44:27.311Z,22.00
2023-04-01T16:49:29.473Z,21.99
2023-04-01T16:55:05.794Z,21.94
2023-04-01T17:00:31.764Z,21.85
2023-04-01T17:06:03.922Z,21.77
2023-04-01T17:11:22.302Z,21.58
2023-04-01T17:17:00.958Z,21.38
2023-04-01T17:22:33.691Z,21.28
2023-04-01T17:28:30.095Z,21.22
2023-04-01T17:33:42.710Z,21.14
2023-04-01T17:39:03.892Z,21.05
2023-04-01T17:44:37.588Z,20.97
2023-04-01T17:49:57.654Z,20.85
2023-04-01T17:55:18.173Z,20.70
2023-04-01T18:00:54.280Z,20.60
2023-04-01T18:06:07.237Z,20.51
2023-04-01T18:11:40.230Z,20.42
2023-04-01T18:17:23.427Z,20.34
2023-04-01T18:22:35.615Z,20.31
2023-04-01T18:28:18.792Z,20.26
2023-04-01T18:33:36.031Z,20.24
2023-04-01T18:38:45.677Z,20.21
2023-04-01T18:44:38.566Z,20.19
2023-04-01T18:49:44.532Z,20.18
2023-04-01T18:55:04.539Z,19.86
2023-04-01T19:00:20.050Z,19.30
2023-04-01T19:05:32.989Z,18.87
2023-04-01T19:11:00.906Z,18.29
2023-04-01T19:16:11.233Z,18.10
2023-04-01T19:21:31.005Z,17.82
2023-04-01T19:26:40.776Z,17.63
2023-04-01T19:32:13.149Z,17.42
2023-04-01T19:37:48.517Z,17.21
2023-04-01T19:42:56.507Z,17.06
2023-04-01T19:48:04.331Z,16.90
2023-04-01T19:53:45.176Z,16.75
2023-04-01T19:58:52.681Z,16.61
2023-04-01T20:04:33.722Z,16.55
2023-04-01T20:10:07.166Z,16.52
2023-04-01T20:15:37.125Z,16.31
2023-04-01T20:20:40.352Z,16.04
2023-04-01T20:25:53.958Z,16.06
2023-04-01T20:31:16.516Z,15.98
2023-04-01T20:36:43.396Z,15.98
2023-04-01T20:42:23.498Z,16.01
2023-04-01T20:47:34.832Z,15.96
2023-04-01T20:52:50.743Z,15.81
2023-04-01T20:58:20.069Z,15.36
2023-04-01T21:03:40.544Z,15.08
2023-04-01T21:09:04.308Z,15.10
2023-04-01T21:14:34.799Z,15.12
2023-04-01T21:19:54.443Z,15.06
2023-04-01T21:25:02.473Z,15.06
2023-04-01T21:30:23.102Z,15.08
2023-04-01T21:36:15.461Z,15.03
2023-04-01T21:41:27.458Z,14.87
2023-04-01T21:47:07.004Z,14.91
2023-04-01T21:52:27.437Z,14.96
2023-04-01T21:57:43.814Z,14.99
2023-04-01T22:03:25.918Z,15.03
2023-04-01T22:09:00.935Z,15.01
2023-04-01T22:14:37.727Z,15.01
2023-04-01T22:20:12.092Z,15.01
2023-04-01T22:25:37.368Z,15.00
2023-04-01T22:31:07.413Z,14.96
2023-04-01T22:36:13.150Z,14.91
2023-04-01T22:41:19.327Z,14.92
2023-04-01T22:46:44.909Z,14.86
2023-04-01T22:51:53.927Z,14.83
2023-04-01T22:57:05.519Z,14.76
2023-04-01T23:02:35.229Z,14.75
2023-04-01T23:07:58.006Z,14.72
2023-04-01T23:13:03.367Z,14.68
2023-04-01T23:18:05.793Z,14.63
2023-04-01T23:23:52.184Z,14.58
2023-04-01T23:28:58.139Z,14.59
2023-04-01T23:34:25.207Z,14.57
2023-04-01T23:39:42.144Z,14.53
2023-04-01T23:44:45.123Z,14.51
2023-04-01T23:50:07.299Z,14.48
2023-04-01T23:55:18.932Z,14.40
